Time;durP1;ratioP1;P1;durP2;ratioP2;P2;SDS_P1;SDS_P2;PMS_P1;PMS_P2;Temp;Humidity;BMP_temperature;BMP_pressure;BME280_temperature;BME280_humidity;BME280_pressure;Samples;Min_cycle;Max_cycle;Signal;HPM_P1;HPM_P2
2021/11/27 00:01:03;;;;;;;;;;;;;;;14.45;57.53;100583.09;143737;979;46012;-75
2021/11/27 00:03:29;;;;;;;;;;;;;;;14.43;56.94;100579.78;143736;985;46002;-73
2021/11/27 00:05:56;;;;;;;;;;;;;;;14.44;57.32;100584.94;143736;984;46002;-73
2021/11/27 00:08:22;;;;;;;;;;;;;;;14.48;56.95;100588.00;143736;979;46013;-73
2021/11/27 00:10:50;;;;;;;;;;;;;;;14.52;56.65;100570.28;143738;980;46004;-73
2021/11/27 00:13:16;;;;;;;;;;;;;;;14.56;56.30;100561.50;143736;986;46008;-74
2021/11/27 00:15:43;;;;;;;;;;;;;;;14.51;56.32;100566.78;143740;971;46000;-74
2021/11/27 00:18:10;;;;;;;;;;;;;;;14.56;56.21;100569.59;143736;984;46010;-74
2021/11/27 00:20:45;;;;;;;;;;;;;;;14.60;55.77;100575.41;143735;984;46002;-74
2021/11/27 00:23:10;;;;;;;;;;;;;;;14.64;55.22;100578.47;143737;985;46009;-73
2021/11/27 00:25:36;;;;;;;;;;;;;;;14.68;55.29;100576.97;143738;985;46000;-73
2021/11/27 00:28:05;;;;;;;;;;;;;;;14.76;55.80;100602.87;143737;971;46934;-74
2021/11/27 00:30:33;;;;;;;;;;;;;;;14.76;55.63;100598.28;143738;984;46002;-74
2021/11/27 00:33:06;;;;;;;;;;;;;;;14.69;56.20;100606.47;143735;985;46008;-73
2021/11/27 00:35:32;;;;;;;;;;;;;;;14.62;56.63;100613.84;143738;986;46000;-72
2021/11/27 00:37:59;;;;;;;;;;;;;;;14.62;57.28;100589.50;143736;984;46010;-72
2021/11/27 00:40:26;;;;;;;;;;;;;;;14.63;57.30;100591.16;143736;984;46002;-73
2021/11/27 00:42:52;;;;;;;;;;;;;;;14.65;57.74;100593.63;143737;985;46008;-72
2021/11/27 00:45:19;;;;;;;;;;;;;;;14.70;57.97;100588.41;143738;985;46000;-73
2021/11/27 00:47:50;;;;;;;;;;;;;;;14.69;57.44;100587.56;143735;984;46010;-72
2021/11/27 00:50:22;;;;;;;;;;;;;;;14.61;57.53;100592.44;143735;972;48002;-74
2021/11/27 00:52:48;;;;;;;;;;;;;;;14.61;57.72;100589.72;143739;985;46008;-73
2021/11/27 00:55:14;;;;;;;;;;;;;;;14.54;57.53;100587.13;143738;985;46000;-74
2021/11/27 00:57:40;;;;;;;;;;;;;;;14.57;56.66;100581.25;143736;984;46010;-73
2021/11/27 01:00:09;;;;;;;;;;;;;;;14.59;57.16;100600.78;143737;983;46002;-73
2021/11/27 01:02:41;;;;;;;;;;;;;;;14.62;57.54;100596.78;143735;986;46010;-75
2021/11/27 01:05:08;;;;;;;;;;;;;;;14.62;57.58;100594.91;143736;986;47002;-73
2021/11/27 01:07:34;;;;;;;;;;;;;;;14.67;57.33;100586.94;143732;983;49012;-72
2021/11/27 01:10:00;;;;;;;;;;;;;;;14.69;57.21;100589.44;143735;983;46002;-72
2021/11/27 01:12:26;;;;;;;;;;;;;;;14.70;57.09;100575.69;143737;985;46008;-72
2021/11/27 01:14:52;;;;;;;;;;;;;;;14.64;57.22;100578.47;143737;986;46000;-73
2021/11/27 01:17:18;;;;;;;;;;;;;;;14.61;57.46;100549.19;143734;972;48010;-73
2021/11/27 01:19:46;;;;;;;;;;;;;;;14.57;57.48;100570.44;143734;984;46004;-73
2021/11/27 01:22:16;;;;;;;;;;;;;;;14.52;57.37;100573.00;143735;984;46008;-73
2021/11/27 01:24:43;;;;;;;;;;;;;;;14.54;57.60;100516.84;143738;985;46000;-72
2021/11/27 01:27:09;;;;;;;;;;;;;;;14.51;58.28;100539.75;143735;984;46010;-72
2021/11/27 01:29:39;;;;;;;;;;;;;;;14.50;58.32;100584.06;143735;983;47935;-72
2021/11/27 01:32:06;;;;;;;;;;;;;;;14.49;57.91;100549.97;143737;986;46008;-72
2021/11/27 01:34:33;;;;;;;;;;;;;;;14.53;58.98;100524.16;143739;986;46000;-73
2021/11/27 01:36:59;;;;;;;;;;;;;;;14.61;58.87;100524.84;143736;974;46010;-72
2021/11/27 01:39:25;;;;;;;;;;;;;;;14.70;58.44;100523.53;143736;984;46002;-73
2021/11/27 01:41:51;;;;;;;;;;;;;;;14.74;58.86;100540.09;143735;986;46925;-72
2021/11/27 01:44:17;;;;;;;;;;;;;;;14.68;58.88;100552.66;143740;981;47000;-73
2021/11/27 01:46:43;;;;;;;;;;;;;;;14.58;57.28;100546.94;143738;984;46010;-73
2021/11/27 01:49:09;;;;;;;;;;;;;;;14.63;57.31;100526.28;143738;984;46010;-73
2021/11/27 01:51:36;;;;;;;;;;;;;;;14.69;57.01;100538.91;143736;975;46008;-74
2021/11/27 01:54:05;;;;;;;;;;;;;;;14.69;56.96;100554.31;143737;985;46008;-72
2021/11/27 01:56:42;;;;;;;;;;;;;;;14.70;57.67;100555.97;143736;984;46010;-74
2021/11/27 01:59:09;;;;;;;;;;;;;;;14.69;57.37;100551.59;143735;984;46002;-73
2021/11/27 02:01:35;;;;;;;;;;;;;;;14.70;57.58;100542.44;143736;983;46008;-73
2021/11/27 02:04:02;;;;;;;;;;;;;;;14.73;57.60;100538.44;143737;986;46008;-72
2021/11/27 02:06:29;;;;;;;;;;;;;;;14.78;57.61;100544.00;143736;984;46010;-73
2021/11/27 02:08:56;;;;;;;;;;;;;;;14.76;57.16;100560.44;143737;984;46002;-72
2021/11/27 02:11:30;;;;;;;;;;;;;;;14.76;57.48;100576.66;143737;986;46008;-72
2021/11/27 02:13:57;;;;;;;;;;;;;;;14.75;57.59;100585.00;143737;985;46000;-73
2021/11/27 02:16:23;;;;;;;;;;;;;;;14.78;57.92;100571.03;143736;981;46019;-72
2021/11/27 02:18:58;;;;;;;;;;;;;;;14.76;58.14;100582.06;143734;984;46934;-72
2021/11/27 02:21:24;;;;;;;;;;;;;;;14.75;58.30;100574.19;143737;985;46008;-73
2021/11/27 02:23:51;;;;;;;;;;;;;;;14.78;58.39;100552.09;143738;982;46000;-72
2021/11/27 02:26:20;;;;;;;;;;;;;;;14.75;58.44;100547.97;143738;984;46010;-72
2021/11/27 02:28:51;;;;;;;;;;;;;;;14.72;58.64;100551.16;143737;982;46002;-72
2021/11/27 02:31:17;;;;;;;;;;;;;;;14.66;58.73;100539.31;143738;983;46008;-72
2021/11/27 02:33:43;;;;;;;;;;;;;;;14.68;58.67;100544.53;143738;985;46000;-71
2021/11/27 02:36:09;;;;;;;;;;;;;;;14.66;59.09;100533.91;143735;984;46011;-73
2021/11/27 02:38:35;;;;;;;;;;;;;;;14.64;59.11;100552.28;143736;984;46002;-72
2021/11/27 02:41:01;;;;;;;;;;;;;;;14.61;59.30;100568.94;143736;985;46008;-72
2021/11/27 02:43:27;;;;;;;;;;;;;;;14.56;59.27;100571.50;143738;985;46000;-73
2021/11/27 02:45:53;;;;;;;;;;;;;;;14.54;59.31;100573.59;143735;984;46010;-72
2021/11/27 02:48:20;;;;;;;;;;;;;;;14.48;59.06;100569.09;143735;984;46934;-72
2021/11/27 02:50:46;;;;;;;;;;;;;;;14.47;58.59;100564.78;143737;985;46008;-72
2021/11/27 02:53:12;;;;;;;;;;;;;;;14.43;58.34;100564.38;143738;982;46000;-72
2021/11/27 02:55:38;;;;;;;;;;;;;;;14.44;58.41;100573.34;143737;973;46010;-73
2021/11/27 02:58:04;;;;;;;;;;;;;;;14.46;58.47;100568.53;143735;984;46002;-73
2021/11/27 03:00:30;;;;;;;;;;;;;;;14.44;58.11;100582.25;143735;985;46008;-73
2021/11/27 03:02:56;;;;;;;;;;;;;;;14.42;58.38;100580.84;143740;982;46000;-72
2021/11/27 03:05:23;;;;;;;;;;;;;;;14.39;58.33;100574.84;143735;984;46011;-73
2021/11/27 03:07:49;;;;;;;;;;;;;;;14.37;58.81;100571.53;143737;977;46002;-73
2021/11/27 03:10:16;;;;;;;;;;;;;;;14.27;59.07;100575.81;143736;986;46008;-73
2021/11/27 03:12:42;;;;;;;;;;;;;;;14.26;58.89;100569.59;143737;978;46000;-74
2021/11/27 03:15:10;;;;;;;;;;;;;;;14.29;59.37;100565.63;143735;984;46010;-73
2021/11/27 03:17:36;;;;;;;;;;;;;;;14.29;59.38;100569.16;143737;984;46002;-73
2021/11/27 03:20:03;;;;;;;;;;;;;;;14.26;59.65;100558.81;143735;983;46017;-73
2021/11/27 03:22:29;;;;;;;;;;;;;;;14.30;59.45;100559.97;143737;985;46000;-73
2021/11/27 03:24:55;;;;;;;;;;;;;;;14.31;59.41;100568.91;143735;984;46010;-74
2021/11/27 03:27:21;;;;;;;;;;;;;;;14.28;59.58;100553.16;143735;984;46002;-75
2021/11/27 03:29:47;;;;;;;;;;;;;;;14.30;59.28;100562.66;143737;985;46008;-75
2021/11/27 03:32:14;;;;;;;;;;;;;;;14.23;59.35;100570.06;143739;985;46000;-75
2021/11/27 03:34:41;;;;;;;;;;;;;;;14.23;59.40;100572.75;143735;984;46934;-73
2021/11/27 03:37:07;;;;;;;;;;;;;;;14.23;59.65;100570.88;143735;983;46010;-73
2021/11/27 03:39:34;;;;;;;;;;;;;;;14.25;59.34;100570.66;143735;986;46008;-73
2021/11/27 03:42:00;;;;;;;;;;;;;;;14.17;59.82;100579.06;143741;983;46000;-73
2021/11/27 03:44:26;;;;;;;;;;;;;;;14.16;59.63;100578.25;143736;983;46010;-73
2021/11/27 03:46:52;;;;;;;;;;;;;;;14.20;59.87;100590.25;143735;984;46002;-72
2021/11/27 03:49:24;;;;;;;;;;;;;;;14.18;59.69;100586.94;143737;985;46008;-71
2021/11/27 03:51:50;;;;;;;;;;;;;;;14.12;59.75;100576.22;143738;982;46000;-72
2021/11/27 03:54:16;;;;;;;;;;;;;;;14.10;59.67;100585.38;143736;984;46010;-72
2021/11/27 03:56:42;;;;;;;;;;;;;;;14.10;59.74;100582.69;143737;984;46010;-73
2021/11/27 03:59:08;;;;;;;;;;;;;;;14.12;59.94;100582.44;143735;985;46008;-72
2021/11/27 04:01:34;;;;;;;;;;;;;;;14.02;60.30;100577.56;143738;985;46000;-72
2021/11/27 04:04:01;;;;;;;;;;;;;;;14.00;60.14;100587.75;143736;984;46010;-72
2021/11/27 04:06:27;;;;;;;;;;;;;;;14.02;60.43;100590.25;143736;972;46002;-74
2021/11/27 04:08:54;;;;;;;;;;;;;;;14.04;60.24;100574.62;143736;986;46008;-74
2021/11/27 04:11:21;;;;;;;;;;;;;;;13.99;60.12;100569.91;143739;986;46000;-72
2021/11/27 04:13:47;;;;;;;;;;;;;;;13.93;60.28;100585.13;143737;977;46010;-72
2021/11/27 04:16:13;;;;;;;;;;;;;;;13.90;60.45;100577.47;143736;984;46002;-72
2021/11/27 04:18:38;;;;;;;;;;;;;;;13.89;60.42;100583.09;143737;985;46008;-72
2021/11/27 04:21:05;;;;;;;;;;;;;;;13.90;60.46;100582.06;143737;986;46000;-73
2021/11/27 04:23:31;;;;;;;;;;;;;;;13.94;60.12;100573.28;143738;973;46010;-72
2021/11/27 04:25:56;;;;;;;;;;;;;;;13.91;60.31;100576.44;143737;984;46003;-73
2021/11/27 04:28:22;;;;;;;;;;;;;;;13.88;60.20;100576.06;143736;985;46008;-72
2021/11/27 04:30:48;;;;;;;;;;;;;;;13.79;60.54;100587.13;143739;986;46000;-73
2021/11/27 04:33:15;;;;;;;;;;;;;;;13.78;60.28;100598.97;143735;984;46010;-72
2021/11/27 04:35:41;;;;;;;;;;;;;;;13.82;60.77;100610.19;143737;975;46002;-72
2021/11/27 04:38:07;;;;;;;;;;;;;;;13.84;60.82;100618.03;143736;980;46008;-73
2021/11/27 04:40:34;;;;;;;;;;;;;;;13.88;60.50;100600.34;143739;983;46017;-72
2021/11/27 04:43:01;;;;;;;;;;;;;;;13.82;60.53;100603.94;143735;983;46011;-72
2021/11/27 04:45:28;;;;;;;;;;;;;;;13.82;60.47;100590.44;143736;975;46010;-73
2021/11/27 04:47:54;;;;;;;;;;;;;;;13.79;60.60;100587.13;143737;985;46008;-73
2021/11/27 04:50:20;;;;;;;;;;;;;;;13.78;60.76;100590.06;143737;986;46000;-73
2021/11/27 04:52:47;;;;;;;;;;;;;;;13.75;60.87;100590.50;143736;975;46934;-73
2021/11/27 04:55:14;;;;;;;;;;;;;;;13.77;60.56;100591.94;143737;980;46002;-73
2021/11/27 04:57:40;;;;;;;;;;;;;;;13.80;60.71;100596.06;143735;985;46009;-73
2021/11/27 05:00:08;;;;;;;;;;;;;;;13.83;60.62;100608.28;143737;986;46000;-72
2021/11/27 05:02:34;;;;;;;;;;;;;;;13.85;60.62;100601.62;143736;984;46010;-73
2021/11/27 05:05:00;;;;;;;;;;;;;;;13.83;60.75;100605.59;143735;984;46002;-72
2021/11/27 05:07:26;;;;;;;;;;;;;;;13.84;60.81;100607.25;143735;986;46008;-72
2021/11/27 05:09:52;;;;;;;;;;;;;;;13.84;60.95;100608.09;143738;986;46000;-72
2021/11/27 05:12:18;;;;;;;;;;;;;;;13.85;60.68;100609.75;143736;975;46010;-72
2021/11/27 05:14:43;;;;;;;;;;;;;;;13.86;60.54;100616.75;143732;983;50010;-72
2021/11/27 05:17:09;;;;;;;;;;;;;;;13.90;60.67;100609.87;143737;986;46008;-73
2021/11/27 05:19:36;;;;;;;;;;;;;;;13.88;60.66;100603.88;143737;984;46000;-73
2021/11/27 05:22:03;;;;;;;;;;;;;;;13.80;61.32;100614.97;143736;984;46010;-72
2021/11/27 05:24:29;;;;;;;;;;;;;;;13.84;61.27;100623.44;143737;984;47002;-72
2021/11/27 05:26:55;;;;;;;;;;;;;;;13.88;61.50;100609.25;143736;983;47008;-73
2021/11/27 05:29:23;;;;;;;;;;;;;;;13.88;60.96;100603.06;143738;985;46000;-74
2021/11/27 05:31:49;;;;;;;;;;;;;;;13.88;60.78;100600.34;143737;984;46010;-72
2021/11/27 05:37:09;;;;;;;;;;;;;;;13.87;61.49;100587.91;143736;986;46008;-73
2021/11/27 05:39:35;;;;;;;;;;;;;;;13.82;62.02;100591.28;143736;975;46000;-72
2021/11/27 05:42:01;;;;;;;;;;;;;;;13.88;61.81;100594.97;143740;986;46011;-74
2021/11/27 05:44:27;;;;;;;;;;;;;;;13.86;61.94;100615.94;143736;979;46002;-72
2021/11/27 05:46:53;;;;;;;;;;;;;;;13.85;62.17;100622.41;143737;986;46008;-72
2021/11/27 05:49:19;;;;;;;;;;;;;;;13.89;62.00;100626.31;143737;978;46008;-72
2021/11/27 05:51:45;;;;;;;;;;;;;;;13.92;61.75;100626.69;143736;983;46012;-72
2021/11/27 05:54:11;;;;;;;;;;;;;;;13.98;61.63;100632.25;143736;976;46942;-73
2021/11/27 05:56:37;;;;;;;;;;;;;;;13.99;61.16;100628.50;143737;985;46011;-73
2021/11/27 05:59:03;;;;;;;;;;;;;;;13.99;61.40;100639.28;143738;979;46002;-73
2021/11/27 06:01:30;;;;;;;;;;;;;;;13.94;61.29;100646.19;143734;984;46012;-73
2021/11/27 06:03:56;;;;;;;;;;;;;;;13.93;61.27;100660.72;143732;976;49004;-73
2021/11/27 06:06:22;;;;;;;;;;;;;;;13.92;61.58;100656.38;143736;985;46010;-73
2021/11/27 06:08:48;;;;;;;;;;;;;;;13.90;61.42;100663.87;143737;980;46002;-73
2021/11/27 06:11:14;;;;;;;;;;;;;;;13.93;61.50;100662.62;143737;984;46013;-73
2021/11/27 06:13:40;;;;;;;;;;;;;;;13.87;61.79;100667.00;143738;975;46004;-73
2021/11/27 06:16:08;;;;;;;;;;;;;;;13.85;61.51;100668.28;143736;986;46932;-75
2021/11/27 06:18:35;;;;;;;;;;;;;;;13.79;61.86;100673.50;143739;980;46002;-74
2021/11/27 06:21:01;;;;;;;;;;;;;;;13.82;61.59;100674.13;143737;983;46004;-72
2021/11/27 06:23:28;;;;;;;;;;;;;;;13.88;61.80;100665.16;143734;976;49004;-73
2021/11/27 06:25:54;;;;;;;;;;;;;;;13.91;61.80;100672.81;143738;975;46002;-72
2021/11/27 06:28:21;;;;;;;;;;;;;;;13.94;61.60;100664.28;143738;979;46002;-73
2021/11/27 06:30:47;;;;;;;;;;;;;;;14.00;61.49;100667.94;143734;984;46934;-73
2021/11/27 06:33:13;;;;;;;;;;;;;;;14.07;61.32;100664.13;143736;976;46005;-73
2021/11/27 06:35:39;;;;;;;;;;;;;;;14.08;61.41;100667.66;143738;972;46002;-73
2021/11/27 06:38:05;;;;;;;;;;;;;;;14.14;61.72;100677.56;143739;980;46002;-73
2021/11/27 06:40:31;;;;;;;;;;;;;;;14.18;61.31;100673.38;143736;984;46013;-73
2021/11/27 06:43:00;;;;;;;;;;;;;;;14.24;61.55;100666.25;143737;975;46004;-74
2021/11/27 06:45:26;;;;;;;;;;;;;;;14.30;61.73;100670.72;143737;986;46010;-73
2021/11/27 06:47:52;;;;;;;;;;;;;;;14.41;61.58;100671.88;143739;980;46002;-73
2021/11/27 06:50:18;;;;;;;;;;;;;;;14.51;61.61;100655.13;143733;986;47007;-73
2021/11/27 06:52:44;;;;;;;;;;;;;;;14.56;61.81;100657.97;143736;976;46004;-74
2021/11/27 06:55:10;;;;;;;;;;;;;;;14.69;61.82;100665.13;143735;985;46010;-73
2021/11/27 06:57:36;;;;;;;;;;;;;;;14.75;61.67;100663.41;143737;979;46002;-73
2021/11/27 07:00:02;;;;;;;;;;;;;;;14.82;61.75;100670.38;143735;984;46012;-73
2021/11/27 07:02:28;;;;;;;;;;;;;;;14.93;61.48;100676.03;143736;976;46004;-74
2021/11/27 07:04:54;;;;;;;;;;;;;;;15.06;61.18;100675.03;143736;984;46010;-74
2021/11/27 07:07:20;;;;;;;;;;;;;;;15.20;60.64;100689.22;143738;980;46002;-74
2021/11/27 07:09:46;;;;;;;;;;;;;;;15.28;60.29;100697.84;143736;982;46934;-76
2021/11/27 07:12:12;;;;;;;;;;;;;;;15.42;60.06;100701.19;143738;976;46004;-73
2021/11/27 07:14:38;;;;;;;;;;;;;;;15.56;59.75;100700.97;143735;986;46932;-73
2021/11/27 07:17:04;;;;;;;;;;;;;;;15.71;59.99;100693.22;143737;966;46002;-74
2021/11/27 07:19:32;;;;;;;;;;;;;;;15.83;60.15;100705.94;143737;984;46934;-73
2021/11/27 07:21:59;;;;;;;;;;;;;;;15.93;59.87;100705.37;143734;975;46004;-73
2021/11/27 07:24:25;;;;;;;;;;;;;;;16.09;59.95;100707.41;143737;984;46010;-71
2021/11/27 07:26:51;;;;;;;;;;;;;;;16.27;59.32;100722.72;143737;979;47003;-76
2021/11/27 07:29:17;;;;;;;;;;;;;;;16.46;58.60;100717.97;143738;968;46934;-68
2021/11/27 07:31:43;;;;;;;;;;;;;;;16.70;58.17;100707.09;143735;976;46004;-68
2021/11/27 07:34:09;;;;;;;;;;;;;;;16.86;58.26;100720.97;143735;981;46019;-68
2021/11/27 07:36:35;;;;;;;;;;;;;;;17.04;57.55;100720.81;143739;979;46002;-68
2021/11/27 07:39:00;;;;;;;;;;;;;;;17.21;56.73;100703.75;143738;971;46012;-69
2021/11/27 07:41:26;;;;;;;;;;;;;;;17.30;56.98;100696.84;143734;976;47005;-71
2021/11/27 07:43:52;;;;;;;;;;;;;;;17.38;56.57;100701.09;143734;986;46010;-69
2021/11/27 07:46:18;;;;;;;;;;;;;;;17.48;57.02;100694.97;143738;980;46002;-69
2021/11/27 07:48:44;;;;;;;;;;;;;;;17.56;56.94;100689.16;143736;984;46013;-68
2021/11/27 07:51:11;;;;;;;;;;;;;;;17.65;56.78;100686.84;143733;975;46017;-68
2021/11/27 07:53:37;;;;;;;;;;;;;;;17.74;56.64;100677.22;143735;985;46010;-69
2021/11/27 07:56:04;;;;;;;;;;;;;;;17.82;56.49;100679.53;143736;980;47002;-67
2021/11/27 07:58:30;;;;;;;;;;;;;;;17.96;56.34;100666.41;143734;985;48002;-67
2021/11/27 08:00:56;;;;;;;;;;;;;;;18.09;56.31;100683.47;143734;980;46002;-69
2021/11/27 08:03:22;;;;;;;;;;;;;;;18.19;56.38;100680.87;143735;986;46009;-70
2021/11/27 08:05:48;;;;;;;;;;;;;;;18.28;56.12;100660.37;143739;983;46000;-68
2021/11/27 08:08:13;;;;;;;;;;;;;;;18.38;55.35;100670.56;143733;986;48020;-67
2021/11/27 08:10:42;;;;;;;;;;;;;;;18.48;54.57;100667.94;143737;980;46002;-69
2021/11/27 08:13:08;;;;;;;;;;;;;;;18.57;54.21;100662.88;143737;985;46008;-69
2021/11/27 08:15:34;;;;;;;;;;;;;;;18.70;54.66;100666.31;143738;983;47000;-70
2021/11/27 08:18:01;;;;;;;;;;;;;;;18.83;54.33;100662.34;143736;986;46011;-70
2021/11/27 08:20:27;;;;;;;;;;;;;;;18.91;54.07;100662.72;143736;979;46002;-70
2021/11/27 08:22:54;;;;;;;;;;;;;;;19.00;53.63;100665.84;143736;985;46008;-71
2021/11/27 08:25:20;;;;;;;;;;;;;;;19.12;53.85;100668.41;143737;984;46000;-71
2021/11/27 08:27:46;;;;;;;;;;;;;;;19.24;53.51;100671.78;143734;985;46011;-69
2021/11/27 08:30:12;;;;;;;;;;;;;;;19.36;53.56;100676.28;143735;980;46002;-68
2021/11/27 08:32:38;;;;;;;;;;;;;;;19.48;53.79;100681.56;143735;985;46009;-70
2021/11/27 08:35:05;;;;;;;;;;;;;;;19.58;53.19;100692.53;143738;983;47000;-69
2021/11/27 08:37:31;;;;;;;;;;;;;;;19.77;52.81;100681.22;143735;985;46010;-70
2021/11/27 08:39:57;;;;;;;;;;;;;;;19.96;52.13;100684.37;143735;980;46002;-69
2021/11/27 08:42:23;;;;;;;;;;;;;;;20.13;51.39;100686.94;143734;986;46930;-69
2021/11/27 08:44:49;;;;;;;;;;;;;;;20.26;51.52;100685.66;143736;984;46000;-69
2021/11/27 08:47:15;;;;;;;;;;;;;;;20.52;50.86;100672.97;143738;986;46010;-69
2021/11/27 08:49:41;;;;;;;;;;;;;;;20.75;50.30;100662.66;143737;979;46002;-69
2021/11/27 08:52:07;;;;;;;;;;;;;;;21.00;49.22;100656.47;143737;983;46008;-70
2021/11/27 08:54:33;;;;;;;;;;;;;;;21.25;49.52;100646.66;143738;984;46000;-68
2021/11/27 08:56:59;;;;;;;;;;;;;;;21.41;48.51;100660.34;143738;974;46010;-69
2021/11/27 08:59:25;;;;;;;;;;;;;;;21.69;47.47;100645.31;143735;980;46002;-69
2021/11/27 09:01:51;;;;;;;;;;;;;;;22.19;46.83;100622.78;143735;983;46930;-67
2021/11/27 09:04:17;;;;;;;;;;;;;;;23.23;43.50;100612.09;143735;983;47000;-68
2021/11/27 09:06:43;;;;;;;;;;;;;;;27.93;34.60;100608.50;143736;984;46010;-68
2021/11/27 09:09:10;;;;;;;;;;;;;;;31.97;27.35;100597.53;143735;980;46002;-68
2021/11/27 09:11:35;;;;;;;;;;;;;;;34.64;23.23;100603.84;143735;985;46009;-68
2021/11/27 09:14:02;;;;;;;;;;;;;;;36.34;21.11;100594.78;143737;984;47000;-67
2021/11/27 09:16:27;;;;;;;;;;;;;;;37.82;19.54;100592.78;143738;981;46010;-68
2021/11/27 09:18:53;;;;;;;;;;;;;;;38.86;18.03;100583.31;143735;980;46011;-67
2021/11/27 09:21:19;;;;;;;;;;;;;;;39.35;17.71;100573.38;143735;985;46008;-69
2021/11/27 09:23:45;;;;;;;;;;;;;;;39.97;16.93;100565.69;143738;984;46000;-67
2021/11/27 09:26:12;;;;;;;;;;;;;;;40.20;15.93;100555.19;143735;982;46011;-68
2021/11/27 09:28:37;;;;;;;;;;;;;;;40.43;15.75;100552.69;143735;980;46002;-68
2021/11/27 09:31:04;;;;;;;;;;;;;;;38.08;18.19;100538.50;143735;986;46008;-67
2021/11/27 09:33:30;;;;;;;;;;;;;;;35.62;19.67;100547.81;143740;983;46000;-67
2021/11/27 09:36:00;;;;;;;;;;;;;;;33.86;22.66;100549.53;143736;985;46010;-69
2021/11/27 09:38:27;;;;;;;;;;;;;;;33.31;22.26;100546.59;143737;980;46002;-69
2021/11/27 09:41:01;;;;;;;;;;;;;;;32.65;23.07;100546.00;143735;985;46009;-70
2021/11/27 09:43:27;;;;;;;;;;;;;;;32.84;24.09;100556.47;143738;984;46000;-69
2021/11/27 09:45:55;;;;;;;;;;;;;;;33.29;23.01;100565.63;143736;986;46010;-69
2021/11/27 09:48:21;;;;;;;;;;;;;;;33.93;22.00;100573.19;143737;980;46002;-69
2021/11/27 09:50:47;;;;;;;;;;;;;;;34.64;21.35;100564.78;143736;986;46008;-69
2021/11/27 09:53:13;;;;;;;;;;;;;;;37.43;18.48;100572.47;143739;984;46000;-69
2021/11/27 09:55:40;;;;;;;;;;;;;;;40.05;16.60;100574.91;143737;986;46011;-69
2021/11/27 09:58:06;;;;;;;;;;;;;;;41.86;14.87;100575.81;143737;979;46002;-69
2021/11/27 10:00:32;;;;;;;;;;;;;;;43.01;13.23;100573.59;143735;986;46008;-69
2021/11/27 10:02:59;;;;;;;;;;;;;;;41.45;13.34;100568.94;143736;984;46000;-69
2021/11/27 10:05:25;;;;;;;;;;;;;;;41.34;14.36;100569.84;143735;985;46010;-69
2021/11/27 10:07:52;;;;;;;;;;;;;;;41.83;13.91;100552.06;143736;980;46002;-69
2021/11/27 10:10:19;;;;;;;;;;;;;;;42.20;13.09;100552.47;143735;986;46009;-69
2021/11/27 10:12:45;;;;;;;;;;;;;;;42.35;13.08;100539.81;143738;984;46000;-70
2021/11/27 10:15:11;;;;;;;;;;;;;;;43.36;11.72;100548.81;143737;976;46010;-68
2021/11/27 10:17:37;;;;;;;;;;;;;;;44.33;11.02;100542.53;143736;980;46002;-70
2021/11/27 10:20:04;;;;;;;;;;;;;;;43.60;12.37;100541.09;143736;985;46008;-70
2021/11/27 10:22:56;;;;;;;;;;;;;;;41.57;13.12;100531.78;143735;984;46000;-69
2021/11/27 10:25:35;;;;;;;;;;;;;;;39.16;15.45;100517.56;143732;986;47010;-70
2021/11/27 10:28:12;;;;;;;;;;;;;;;36.70;17.95;100511.34;143732;980;47002;-69
2021/11/27 10:30:43;;;;;;;;;;;;;;;34.74;20.25;100510.38;143732;983;46931;-70
2021/11/27 10:33:09;;;;;;;;;;;;;;;33.31;21.98;100515.16;143735;983;47000;-71
2021/11/27 10:35:36;;;;;;;;;;;;;;;34.40;20.60;100510.91;143728;986;47010;-69
2021/11/27 10:38:05;;;;;;;;;;;;;;;35.25;19.33;100500.12;143735;980;47002;-69
2021/11/27 10:40:31;;;;;;;;;;;;;;;35.27;19.59;100504.16;143734;985;47008;-69
2021/11/27 10:42:57;;;;;;;;;;;;;;;35.05;19.71;100498.19;143733;984;47000;-69
2021/11/27 10:45:25;;;;;;;;;;;;;;;34.50;19.72;100497.56;143732;986;46010;-69
2021/11/27 10:47:52;;;;;;;;;;;;;;;32.47;21.97;100499.03;143732;980;47002;-70
2021/11/27 10:50:21;;;;;;;;;;;;;;;31.44;23.29;100501.84;143732;983;46008;-70
2021/11/27 10:52:48;;;;;;;;;;;;;;;31.31;24.18;100497.44;143735;984;47000;-70
2021/11/27 10:55:26;;;;;;;;;;;;;;;31.27;24.53;100497.31;143733;985;46011;-69
2021/11/27 10:57:55;;;;;;;;;;;;;;;31.26;24.78;100490.16;143733;979;47010;-70
2021/11/27 11:00:40;;;;;;;;;;;;;;;30.62;24.06;100483.19;143733;981;46008;-69
2021/11/27 11:03:22;;;;;;;;;;;;;;;29.31;26.25;100491.97;143734;983;47000;-70
2021/11/27 11:05:48;;;;;;;;;;;;;;;29.21;25.91;100489.59;143733;986;46010;-70
2021/11/27 11:08:14;;;;;;;;;;;;;;;28.84;26.27;100495.53;143732;980;48002;-70
2021/11/27 11:10:40;;;;;;;;;;;;;;;28.37;27.06;100496.19;143732;986;47002;-71
2021/11/27 11:13:11;;;;;;;;;;;;;;;27.69;28.20;100485.53;143736;986;46008;-69
2021/11/27 11:15:44;;;;;;;;;;;;;;;27.07;29.31;100485.25;143733;987;48010;-71
2021/11/27 11:18:28;;;;;;;;;;;;;;;26.59;29.72;100480.41;143734;979;47002;-70
2021/11/27 11:21:01;;;;;;;;;;;;;;;25.99;31.63;100482.28;143736;975;46010;-70
2021/11/27 11:23:28;;;;;;;;;;;;;;;25.72;31.82;100475.72;143735;984;47000;-69
2021/11/27 11:25:59;;;;;;;;;;;;;;;25.54;32.75;100469.19;143735;985;46011;-71
2021/11/27 11:28:27;;;;;;;;;;;;;;;25.50;32.97;100457.22;143738;980;46002;-69
2021/11/27 11:31:00;;;;;;;;;;;;;;;25.39;33.40;100453.81;143736;986;46008;-69
2021/11/27 11:33:28;;;;;;;;;;;;;;;24.90;35.56;100454.16;143739;983;46000;-70
2021/11/27 11:35:54;;;;;;;;;;;;;;;24.49;36.61;100466.63;143736;986;46010;-71
2021/11/27 11:38:21;;;;;;;;;;;;;;;24.63;36.08;100463.94;143736;980;46003;-71
2021/11/27 11:40:47;;;;;;;;;;;;;;;24.25;36.97;100466.72;143735;986;46008;-70
2021/11/27 11:43:14;;;;;;;;;;;;;;;24.07;37.08;100463.69;143737;979;46000;-71
2021/11/27 11:45:41;;;;;;;;;;;;;;;24.44;36.19;100458.47;143735;986;46010;-71
2021/11/27 11:48:07;;;;;;;;;;;;;;;24.02;37.57;100449.22;143736;979;46003;-70
2021/11/27 11:50:36;;;;;;;;;;;;;;;23.79;36.98;100448.13;143732;986;46930;-72
2021/11/27 11:53:08;;;;;;;;;;;;;;;23.89;37.73;100442.50;143738;984;46000;-70
2021/11/27 11:55:35;;;;;;;;;;;;;;;24.10;37.66;100447.75;143736;983;46011;-71
2021/11/27 11:58:01;;;;;;;;;;;;;;;24.69;36.65;100431.69;143736;980;46002;-70
2021/11/27 12:00:42;;;;;;;;;;;;;;;24.53;37.10;100434.72;143736;983;46017;-71
2021/11/27 12:03:13;;;;;;;;;;;;;;;24.71;36.42;100423.22;143737;983;46000;-71
2021/11/27 12:06:13;;;;;;;;;;;;;;;24.58;37.67;100417.31;143734;973;46010;-71
2021/11/27 12:09:05;;;;;;;;;;;;;;;24.74;36.82;100415.19;143734;980;47002;-70
2021/11/27 12:11:41;;;;;;;;;;;;;;;24.77;36.95;100409.09;143735;986;46008;-71
2021/11/27 12:14:41;;;;;;;;;;;;;;;24.24;38.01;100406.66;143737;984;46000;-71
2021/11/27 12:17:17;;;;;;;;;;;;;;;23.78;38.98;100406.16;143735;984;46011;-70
2021/11/27 12:19:52;;;;;;;;;;;;;;;23.36;40.43;100394.94;143736;980;46002;-71
2021/11/27 12:22:37;;;;;;;;;;;;;;;23.07;40.98;100394.97;143736;981;46008;-71
2021/11/27 12:25:21;;;;;;;;;;;;;;;22.71;41.03;100396.16;143738;984;46000;-71
2021/11/27 12:28:22;;;;;;;;;;;;;;;22.49;41.00;100374.75;143737;973;46010;-71
2021/11/27 12:30:58;;;;;;;;;;;;;;;22.27;42.09;100376.78;143734;980;46002;-70
2021/11/27 12:34:01;;;;;;;;;;;;;;;22.24;42.49;100380.09;143733;984;46008;-71
2021/11/27 12:36:47;;;;;;;;;;;;;;;22.31;42.37;100379.78;143738;984;46000;-71
2021/11/27 12:39:43;;;;;;;;;;;;;;;22.23;41.72;100383.13;143736;985;46010;-72
2021/11/27 12:42:13;;;;;;;;;;;;;;;22.13;42.00;100389.47;143735;980;46002;-72